Terminal Aerodrome Forecast
Issued by NWS

Home | Current Version | Previous Version | Text Only | Print | Product List | Glossary On
Versions: 1 2 3 4 5 6 7 8 9 10 11 12 13 14 15 16 17 18
128
FTUS44 KLZK 281139
TAFLLQ
TAF
KLLQ 281139Z 2812/0112 18007KT P6SM OVC004
     FM281500 18010KT P6SM SCT008 OVC012
     FM281700 19012G20KT P6SM SCT018 BKN025
     FM282000 19010G18KT P6SM FEW025 SCT035 BKN050
     FM010400 20012G22KT P6SM BKN025 BKN035 BKN050=

USA.gov is the U.S. government's official web portal to all federal, state and local government web resources and services.